Time;durP1;ratioP1;P1;durP2;ratioP2;P2;SDS_P1;SDS_P2;PMS_P1;PMS_P2;Temp;Humidity;BMP_temperature;BMP_pressure;BME280_temperature;BME280_humidity;BME280_pressure;Samples;Min_cycle;Max_cycle;Signal;HPM_P1;HPM_P2
2023/03/06 00:00:37;;;;;;;22.43;10.47;;;;;;;2.08;92.36;97948.38;4962895;28;20230;-55
2023/03/06 00:03:03;;;;;;;20.00;10.23;;;;;;;2.08;92.17;97950.94;4960137;28;20237;-53
2023/03/06 00:05:30;;;;;;;19.70;10.53;;;;;;;2.12;91.79;97948.94;4961706;28;20272;-53
2023/03/06 00:07:58;;;;;;;18.27;9.60;;;;;;;2.05;92.60;97946.03;4957961;28;20234;-53
2023/03/06 00:10:27;;;;;;;15.97;10.00;;;;;;;2.06;92.00;97953.63;4963781;28;20284;-55
2023/03/06 00:12:54;;;;;;;19.07;9.63;;;;;;;2.05;92.53;97951.16;4961379;28;20237;-53
2023/03/06 00:15:21;;;;;;;18.20;9.57;;;;;;;2.04;92.50;97949.53;4961045;28;20257;-54
2023/03/06 00:17:48;;;;;;;15.73;8.90;;;;;;;2.06;91.87;97950.25;4950673;28;20289;-53
2023/03/06 00:20:15;;;;;;;16.43;9.13;;;;;;;2.08;92.32;97948.38;4961259;28;20243;-54
2023/03/06 00:22:41;;;;;;;18.97;9.07;;;;;;;2.12;91.81;97941.22;4958398;28;20685;-54
2023/03/06 00:25:13;;;;;;;16.03;8.73;;;;;;;2.03;91.83;97946.13;4961889;28;20230;-55
2023/03/06 00:27:40;;;;;;;17.23;9.27;;;;;;;1.95;92.28;97938.13;4958845;28;20221;-53
2023/03/06 00:30:10;;;;;;;17.73;9.33;;;;;;;1.98;92.23;97934.53;4961572;28;20241;-55
2023/03/06 00:32:36;;;;;;;16.87;8.77;;;;;;;2.02;92.55;97938.53;4958703;28;20594;-56
2023/03/06 00:35:03;;;;;;;17.70;8.97;;;;;;;1.99;92.94;97936.19;4957657;28;20241;-54
2023/03/06 00:37:30;;;;;;;16.33;8.43;;;;;;;1.97;93.16;97932.91;4962212;28;20218;-56
2023/03/06 00:39:56;;;;;;;15.10;8.30;;;;;;;1.92;92.32;97935.78;4962666;28;20334;-53
2023/03/06 00:42:25;;;;;;;18.93;8.57;;;;;;;1.86;92.44;97937.06;4958995;28;20308;-53
2023/03/06 00:44:52;;;;;;;17.40;7.70;;;;;;;1.88;92.79;97931.81;4958901;28;20237;-55
2023/03/06 00:47:18;;;;;;;17.13;9.03;;;;;;;1.87;92.40;97932.72;4961718;28;20229;-55
2023/03/06 00:49:45;;;;;;;19.83;8.97;;;;;;;1.86;92.33;97941.38;4958302;28;20970;-55
2023/03/06 00:52:12;;;;;;;19.30;9.00;;;;;;;1.86;92.32;97931.94;4962192;28;20237;-53
2023/03/06 00:54:39;;;;;;;17.10;8.43;;;;;;;1.88;92.10;97934.38;4973240;28;20223;-56
2023/03/06 00:57:07;;;;;;;17.37;9.70;;;;;;;1.87;93.35;97927.59;4959863;28;20243;-57
2023/03/06 00:59:35;;;;;;;17.67;8.50;;;;;;;1.85;93.49;97932.03;4959837;28;20489;-55
2023/03/06 01:02:01;;;;;;;17.50;8.40;;;;;;;1.87;92.67;97923.28;4961419;28;20228;-55
2023/03/06 01:04:28;;;;;;;14.33;7.80;;;;;;;1.85;92.65;97919.16;4961836;28;20225;-55
2023/03/06 01:06:55;;;;;;;16.73;9.40;;;;;;;1.84;92.96;97917.53;4957567;28;22472;-55
2023/03/06 01:09:21;;;;;;;15.20;8.87;;;;;;;1.82;93.09;97912.50;4959834;28;20277;-54
2023/03/06 01:11:48;;;;;;;14.33;7.83;;;;;;;1.80;91.75;97909.22;4958363;28;20222;-54
2023/03/06 01:14:14;;;;;;;15.00;8.07;;;;;;;1.82;92.29;97903.94;4962010;28;20230;-54
2023/03/06 01:16:43;;;;;;;14.53;8.07;;;;;;;1.83;92.97;97903.84;4957737;28;20222;-53
2023/03/06 01:19:10;;;;;;;17.77;8.40;;;;;;;1.76;93.45;97900.09;4960702;28;20241;-53
2023/03/06 01:21:36;;;;;;;17.33;8.30;;;;;;;1.76;94.28;97911.19;4958350;28;20230;-53
2023/03/06 01:24:03;;;;;;;16.40;8.27;;;;;;;1.75;94.18;97901.81;4959974;28;20529;-55
2023/03/06 01:26:30;;;;;;;17.90;9.13;;;;;;;1.81;93.59;97897.16;4962692;28;20217;-58
2023/03/06 01:28:58;;;;;;;14.93;8.70;;;;;;;1.75;94.20;97895.88;4957632;28;20237;-53
2023/03/06 01:31:25;;;;;;;18.63;9.13;;;;;;;1.69;94.35;97884.25;4967034;28;20300;-53
2023/03/06 01:33:53;;;;;;;19.27;9.17;;;;;;;1.68;94.02;97877.47;4958524;28;20232;-52
2023/03/06 01:36:20;;;;;;;19.40;8.43;;;;;;;1.66;93.99;97873.38;4946282;28;20223;-57
2023/03/06 01:38:46;;;;;;;16.40;8.73;;;;;;;1.58;94.19;97867.06;4938694;28;20230;-57
2023/03/06 01:41:15;;;;;;;18.67;9.33;;;;;;;1.59;94.44;97870.47;4951617;28;20736;-55
2023/03/06 01:43:43;;;;;;;16.97;8.30;;;;;;;1.55;94.31;97872.41;4957358;28;20232;-56
2023/03/06 01:46:37;;;;;;;16.30;8.60;;;;;;;1.59;94.27;97870.47;4958503;28;20320;-53
2023/03/06 01:49:12;;;;;;;16.83;8.77;;;;;;;1.56;93.85;97866.34;4957334;28;20314;-55
2023/03/06 01:51:43;;;;;;;18.03;8.77;;;;;;;1.49;94.69;97870.28;4953088;28;20677;-52
2023/03/06 01:54:15;;;;;;;20.47;9.20;;;;;;;1.45;95.08;97854.28;4957456;28;20241;-53
2023/03/06 01:56:44;;;;;;;16.73;9.10;;;;;;;1.44;95.06;97849.25;4958105;28;20225;-52
2023/03/06 01:59:10;;;;;;;18.63;9.77;;;;;;;1.37;94.90;97848.03;4955634;28;20585;-52
2023/03/06 02:01:40;;;;;;;17.73;9.70;;;;;;;1.28;94.63;97847.78;4954886;28;20233;-55
2023/03/06 02:04:10;;;;;;;18.03;9.53;;;;;;;1.22;95.36;97842.28;4966797;28;20290;-54
2023/03/06 02:06:41;;;;;;;18.93;9.83;;;;;;;1.18;96.00;97842.50;4958634;28;20213;-53
2023/03/06 02:09:10;;;;;;;20.07;10.83;;;;;;;1.10;95.35;97843.97;4963755;28;20314;-53
2023/03/06 02:11:36;;;;;;;17.37;9.13;;;;;;;1.05;95.41;97838.34;4961848;28;20231;-51
2023/03/06 02:14:03;;;;;;;17.10;9.10;;;;;;;1.01;96.07;97824.88;4967290;28;20292;-52
2023/03/06 02:16:32;;;;;;;18.23;8.90;;;;;;;0.91;95.48;97826.47;4982435;28;20721;-52
2023/03/06 02:19:01;;;;;;;18.33;9.20;;;;;;;0.88;96.12;97824.97;4953185;28;20246;-53
2023/03/06 02:21:34;;;;;;;24.52;10.20;;;;;;;0.88;95.95;97825.75;4948797;28;20491;-55
2023/03/06 02:24:11;;;;;;;20.33;10.23;;;;;;;0.81;95.97;97827.13;4974735;28;20677;-51
2023/03/06 02:26:42;;;;;;;20.03;10.03;;;;;;;0.84;94.91;97823.53;4965780;28;20263;-52
2023/03/06 02:29:09;;;;;;;19.73;10.30;;;;;;;0.83;96.19;97817.56;4965719;28;20264;-53
2023/03/06 02:31:36;;;;;;;22.00;10.83;;;;;;;0.85;95.98;97818.28;4966820;28;20226;-53
2023/03/06 02:34:06;;;;;;;25.33;10.83;;;;;;;0.87;96.12;97821.56;4967101;28;20234;-52
2023/03/06 02:36:37;;;;;;;20.67;9.83;;;;;;;0.93;96.24;97809.19;4968501;28;20304;-54
2023/03/06 02:39:05;;;;;;;25.90;10.93;;;;;;;0.97;96.19;97811.47;4964694;28;20901;-53
2023/03/06 02:41:32;;;;;;;22.67;10.27;;;;;;;0.98;96.07;97815.66;4969202;28;20276;-53
2023/03/06 02:44:00;;;;;;;20.83;10.70;;;;;;;1.00;96.55;97810.41;4966054;28;20777;-55
2023/03/06 02:46:28;;;;;;;22.60;10.80;;;;;;;1.08;95.89;97808.09;4970130;28;20230;-55
2023/03/06 02:48:55;;;;;;;19.27;10.57;;;;;;;1.07;96.05;97800.47;4965921;28;22774;-53
2023/03/06 02:51:22;;;;;;;22.10;10.77;;;;;;;1.15;95.83;97799.00;4966466;28;20773;-53
2023/03/06 02:53:49;;;;;;;22.87;10.93;;;;;;;1.25;95.14;97801.72;4963516;28;20257;-55
2023/03/06 02:56:16;;;;;;;24.90;11.60;;;;;;;1.20;94.88;97790.16;4967940;28;20729;-55
2023/03/06 02:58:42;;;;;;;20.93;10.43;;;;;;;1.18;94.93;97803.94;4965273;28;20222;-51
2023/03/06 03:01:11;;;;;;;22.57;9.67;;;;;;;1.30;95.06;97785.97;4966072;28;20785;-55
2023/03/06 03:03:39;;;;;;;19.77;9.97;;;;;;;1.30;95.13;97791.91;4979239;28;20304;-55
2023/03/06 03:06:07;;;;;;;21.03;11.10;;;;;;;1.30;95.07;97789.34;4966367;28;20624;-55
2023/03/06 03:08:36;;;;;;;24.13;10.43;;;;;;;1.32;95.33;97797.78;4964758;28;20221;-55
2023/03/06 03:11:04;;;;;;;23.10;11.00;;;;;;;1.39;95.35;97792.19;4964939;28;20705;-54
2023/03/06 03:13:39;;;;;;;22.07;10.97;;;;;;;1.34;95.17;97782.25;4961448;28;20221;-55
2023/03/06 03:16:10;;;;;;;21.33;10.90;;;;;;;1.37;95.01;97781.19;4965599;28;20241;-54
2023/03/06 03:18:38;;;;;;;23.03;11.03;;;;;;;1.43;94.84;97775.59;4963397;28;20238;-52
2023/03/06 03:21:12;;;;;;;24.53;12.23;;;;;;;1.42;94.56;97767.06;4965625;28;20699;-52
2023/03/06 03:23:39;;;;;;;27.33;12.03;;;;;;;1.45;95.07;97777.13;4963285;28;20221;-54
2023/03/06 03:26:07;;;;;;;22.20;12.27;;;;;;;1.45;95.28;97769.41;4982671;28;20238;-52
2023/03/06 03:28:36;;;;;;;25.27;12.37;;;;;;;1.45;95.28;97771.16;4963756;28;20586;-53
2023/03/06 03:31:03;;;;;;;21.47;11.50;;;;;;;1.46;95.15;97781.34;4965165;28;20257;-52
2023/03/06 03:33:32;;;;;;;21.93;11.00;;;;;;;1.48;95.78;97781.22;4964706;28;20238;-55
2023/03/06 03:36:05;;;;;;;23.70;11.03;;;;;;;1.51;95.17;97780.19;4955061;28;20234;-52
2023/03/06 03:38:34;;;;;;;25.87;12.30;;;;;;;1.57;95.54;97780.53;4981715;28;20672;-53
2023/03/06 03:41:01;;;;;;;29.13;13.80;;;;;;;1.56;95.61;97773.75;4965074;28;20245;-54
2023/03/06 03:43:28;;;;;;;24.80;12.83;;;;;;;1.56;95.51;97770.38;4952257;28;20270;-53
2023/03/06 03:45:55;;;;;;;24.90;12.03;;;;;;;1.53;94.55;97770.59;4962138;28;20242;-53
2023/03/06 03:48:23;;;;;;;25.13;12.13;;;;;;;1.56;93.92;97763.47;4965583;28;20245;-52
2023/03/06 03:50:50;;;;;;;23.47;12.57;;;;;;;1.56;94.56;97763.47;4961734;28;20969;-52
2023/03/06 03:53:18;;;;;;;28.77;13.40;;;;;;;1.58;94.13;97759.00;4964859;28;20230;-54
2023/03/06 03:55:47;;;;;;;26.67;12.53;;;;;;;1.60;94.15;97757.16;4962160;28;20755;-55
2023/03/06 03:58:15;;;;;;;22.50;12.07;;;;;;;1.57;94.90;97759.16;4965245;28;20282;-52
2023/03/06 04:03:53;;;;;;;26.13;13.60;;;;;;;1.64;94.12;97749.19;5689431;23;20226;-62
2023/03/06 04:06:20;;;;;;;30.67;13.77;;;;;;;1.58;94.67;97747.91;4959860;28;20233;-62
2023/03/06 04:08:49;;;;;;;25.27;12.93;;;;;;;1.61;95.04;97747.66;4962698;28;20238;-62
2023/03/06 04:11:16;;;;;;;25.03;13.10;;;;;;;1.64;95.22;97741.47;4957693;28;20238;-62
2023/03/06 04:13:43;;;;;;;27.37;13.40;;;;;;;1.61;94.09;97750.22;4948810;28;20264;-62
2023/03/06 04:16:09;;;;;;;26.73;14.10;;;;;;;1.62;94.71;97739.00;4938060;28;20280;-62
2023/03/06 04:18:38;;;;;;;24.60;13.13;;;;;;;1.63;95.29;97740.66;4952541;28;20256;-62
2023/03/06 04:21:06;;;;;;;28.00;13.90;;;;;;;1.64;94.94;97744.84;4959649;28;20245;-62
2023/03/06 04:23:33;;;;;;;25.43;13.87;;;;;;;1.58;94.99;97738.44;4964356;28;20725;-62
2023/03/06 04:26:02;;;;;;;30.83;14.27;;;;;;;1.62;95.24;97733.88;4931500;28;20236;-62
2023/03/06 04:28:29;;;;;;;29.23;14.00;;;;;;;1.56;95.10;97732.59;4965760;28;20245;-62
2023/03/06 04:33:26;;;;;;;24.73;12.97;;;;;;;1.59;94.00;97732.34;4979315;28;20294;-55
2023/03/06 04:35:54;;;;;;;30.87;14.10;;;;;;;1.58;94.42;97735.06;5004279;28;20225;-55
2023/03/06 04:38:25;;;;;;;27.07;14.23;;;;;;;1.65;94.37;97732.84;4992560;28;20234;-56
2023/03/06 04:40:52;;;;;;;25.47;12.97;;;;;;;1.66;94.28;97734.47;5000300;28;20225;-57
2023/03/06 04:43:20;;;;;;;24.13;13.77;;;;;;;1.65;94.76;97731.06;5005201;28;20348;-56
2023/03/06 04:45:46;;;;;;;33.87;15.73;;;;;;;1.76;94.22;97738.78;5002788;28;20240;-57
2023/03/06 04:48:13;;;;;;;29.57;14.57;;;;;;;1.73;93.60;97733.06;5005841;28;20715;-56
2023/03/06 04:50:40;;;;;;;34.20;14.13;;;;;;;1.75;93.93;97731.19;5002095;28;20290;-53
2023/03/06 04:53:07;;;;;;;32.70;15.30;;;;;;;1.82;92.86;97726.38;5005316;28;20403;-54
2023/03/06 04:55:34;;;;;;;31.57;15.37;;;;;;;1.89;91.13;97733.53;5005335;28;20228;-54
2023/03/06 04:58:00;;;;;;;27.73;14.90;;;;;;;2.00;87.46;97726.75;5002665;28;20244;-53
2023/03/06 05:00:30;;;;;;;31.97;16.17;;;;;;;2.00;87.32;97726.75;5004965;28;20240;-56
2023/03/06 05:02:58;;;;;;;29.50;14.77;;;;;;;2.05;87.68;97724.63;5001857;28;20244;-53
2023/03/06 05:05:24;;;;;;;30.37;13.90;;;;;;;2.07;86.84;97725.34;5005411;28;20699;-54
2023/03/06 05:07:51;;;;;;;30.47;15.33;;;;;;;2.07;86.30;97722.75;5001323;28;20240;-55
2023/03/06 05:10:19;;;;;;;34.33;15.20;;;;;;;2.12;85.80;97717.25;5005356;28;20239;-56
2023/03/06 05:12:45;;;;;;;44.70;23.77;;;;;;;2.13;86.02;97722.25;5002264;28;20229;-54
2023/03/06 05:15:13;;;;;;;29.10;15.13;;;;;;;2.15;86.76;97715.22;5019844;28;20256;-52
2023/03/06 05:17:41;;;;;;;33.27;15.40;;;;;;;2.18;85.39;97715.00;5002147;28;20228;-52
2023/03/06 05:20:10;;;;;;;29.23;14.20;;;;;;;2.16;85.02;97714.28;5005248;28;20854;-55
2023/03/06 05:22:36;;;;;;;27.17;14.60;;;;;;;2.14;85.86;97720.50;5002398;28;20228;-54
2023/03/06 05:25:04;;;;;;;31.77;14.50;;;;;;;2.17;85.36;97717.69;5004248;28;20239;-54
2023/03/06 05:27:31;;;;;;;32.83;15.00;;;;;;;2.17;85.20;97728.00;5005139;28;20232;-55
2023/03/06 05:29:57;;;;;;;35.13;20.93;;;;;;;2.18;86.98;97714.19;5002245;28;20217;-52
2023/03/06 05:32:24;;;;;;;27.47;14.37;;;;;;;2.20;86.21;97718.25;5004915;28;20236;-52
2023/03/06 05:34:52;;;;;;;44.90;22.80;;;;;;;2.20;83.75;97709.72;5001846;28;20787;-52
2023/03/06 05:37:18;;;;;;;28.17;15.40;;;;;;;2.18;83.77;97706.47;5019497;28;20234;-52
2023/03/06 05:39:45;;;;;;;28.17;14.30;;;;;;;2.19;84.30;97705.53;5001960;28;20231;-53
2023/03/06 05:42:11;;;;;;;29.73;13.60;;;;;;;2.17;84.14;97704.81;5007955;28;20248;-52
2023/03/06 05:44:38;;;;;;;36.27;17.13;;;;;;;2.15;82.96;97707.50;5005689;28;20624;-56
2023/03/06 05:47:05;;;;;;;67.60;35.97;;;;;;;2.14;82.99;97700.72;5007359;28;20232;-54
2023/03/06 05:49:33;;;;;;;31.93;15.27;;;;;;;2.13;83.27;97696.50;5007333;28;20821;-55
2023/03/06 05:52:03;;;;;;;31.70;17.57;;;;;;;2.15;83.69;97707.50;5005990;28;20239;-52
2023/03/06 05:54:30;;;;;;;31.70;16.80;;;;;;;2.17;83.72;97702.25;5008045;28;20340;-53
2023/03/06 05:56:57;;;;;;;27.77;14.80;;;;;;;2.17;82.14;97705.63;5005073;28;20240;-52
2023/03/06 05:59:26;;;;;;;29.23;14.50;;;;;;;2.14;82.70;97698.16;5007065;28;20323;-52
2023/03/06 06:01:54;;;;;;;24.00;12.33;;;;;;;2.16;82.81;97703.19;5005602;28;20707;-52
2023/03/06 06:04:21;;;;;;;25.17;12.53;;;;;;;2.20;83.10;97713.13;5007016;28;20240;-53
2023/03/06 06:06:51;;;;;;;26.40;12.40;;;;;;;2.23;81.49;97706.91;5004595;28;20247;-52
2023/03/06 06:09:19;;;;;;;32.57;13.53;;;;;;;2.26;80.92;97708.41;5008472;28;20231;-56
2023/03/06 06:11:46;;;;;;;26.20;14.33;;;;;;;2.27;80.88;97708.31;5005195;28;20266;-51
2023/03/06 06:14:13;;;;;;;28.90;14.57;;;;;;;2.28;81.86;97714.28;5007265;28;20238;-52
2023/03/06 06:16:40;;;;;;;31.73;16.93;;;;;;;2.25;82.93;97720.50;5005418;28;20286;-52
2023/03/06 06:19:07;;;;;;;27.33;13.20;;;;;;;2.25;83.04;97714.50;5008401;28;20236;-55
2023/03/06 06:21:34;;;;;;;22.80;12.13;;;;;;;2.28;82.47;97709.13;5007564;28;20294;-54
2023/03/06 06:24:00;;;;;;;22.33;11.57;;;;;;;2.29;80.44;97711.59;5005251;28;20231;-55
2023/03/06 06:26:28;;;;;;;21.67;10.37;;;;;;;2.29;79.06;97710.75;5008113;28;20240;-53
2023/03/06 06:28:55;;;;;;;21.93;10.93;;;;;;;2.32;79.68;97713.91;5005341;28;20306;-52
2023/03/06 06:31:21;;;;;;;28.03;11.37;;;;;;;2.38;78.70;97722.09;5007924;28;20619;-51
2023/03/06 06:33:48;;;;;;;26.80;11.33;;;;;;;2.42;79.18;97716.56;5004258;28;20740;-52
2023/03/06 06:36:16;;;;;;;23.17;11.63;;;;;;;2.45;79.11;97720.69;5007814;28;20235;-53
2023/03/06 06:38:43;;;;;;;24.03;12.10;;;;;;;2.49;78.89;97725.47;5004980;28;20240;-52
2023/03/06 06:41:10;;;;;;;24.17;12.97;;;;;;;2.53;78.48;97725.22;5007928;28;20244;-54
2023/03/06 06:43:38;;;;;;;23.27;11.27;;;;;;;2.53;78.14;97728.63;5004215;28;20230;-55
2023/03/06 06:46:04;;;;;;;24.77;11.87;;;;;;;2.58;77.10;97721.34;5007218;28;20224;-52
2023/03/06 06:48:31;;;;;;;23.83;12.33;;;;;;;2.59;77.17;97724.72;5006727;28;20240;-52
2023/03/06 06:51:00;;;;;;;26.80;11.60;;;;;;;2.65;77.96;97730.19;5019242;28;20290;-52
2023/03/06 06:53:26;;;;;;;23.23;11.27;;;;;;;2.67;76.35;97732.66;5005861;28;20232;-54
2023/03/06 06:55:53;;;;;;;22.47;11.23;;;;;;;2.68;76.47;97736.88;5004075;28;20711;-54
2023/03/06 06:58:19;;;;;;;22.70;11.37;;;;;;;2.71;76.02;97738.38;5007441;28;20677;-56
2023/03/06 07:00:47;;;;;;;20.97;10.97;;;;;;;2.73;76.25;97739.06;5004066;28;20235;-54
2023/03/06 07:03:14;;;;;;;22.67;13.20;;;;;;;2.82;75.46;97743.50;5006102;28;20498;-55
2023/03/06 07:05:41;;;;;;;24.00;12.03;;;;;;;2.83;74.12;97742.53;5004214;28;20280;-52
2023/03/06 07:08:07;;;;;;;24.23;11.67;;;;;;;2.86;74.71;97747.47;5006964;28;20232;-52
2023/03/06 07:10:35;;;;;;;25.33;11.43;;;;;;;2.90;75.24;97751.44;5007004;28;20228;-55
2023/03/06 07:13:02;;;;;;;24.13;11.40;;;;;;;2.92;73.65;97759.84;5004485;28;20246;-52
2023/03/06 07:15:29;;;;;;;24.47;10.97;;;;;;;2.99;74.62;97760.19;5006104;28;20282;-55
2023/03/06 07:17:57;;;;;;;23.13;11.07;;;;;;;2.94;74.04;97754.59;5004290;28;20236;-52
2023/03/06 07:20:24;;;;;;;22.77;11.10;;;;;;;2.93;73.48;97763.25;5007071;28;20229;-52
2023/03/06 07:22:50;;;;;;;25.00;13.15;;;;;;;2.98;75.75;97757.72;4999902;28;20435;-55
2023/03/06 07:25:17;;;;;;;22.27;11.43;;;;;;;2.97;76.01;97761.25;5006585;28;20232;-54
2023/03/06 07:27:44;;;;;;;23.50;11.13;;;;;;;2.98;76.54;97758.56;5003881;28;20243;-52
2023/03/06 07:30:12;;;;;;;22.63;11.30;;;;;;;3.05;76.90;97762.28;5006819;28;20232;-54
2023/03/06 07:32:39;;;;;;;24.60;11.70;;;;;;;3.09;75.65;97766.25;5003727;28;20329;-54
2023/03/06 07:35:08;;;;;;;22.13;11.33;;;;;;;3.12;74.13;97764.34;5006762;28;20220;-56
2023/03/06 07:37:34;;;;;;;23.23;11.17;;;;;;;3.12;78.34;97764.34;5006492;28;20253;-56
2023/03/06 07:40:02;;;;;;;23.73;11.70;;;;;;;3.15;77.60;97758.94;4995981;28;20350;-53
2023/03/06 07:42:29;;;;;;;24.53;12.10;;;;;;;3.14;75.89;97765.84;5006519;28;20240;-55
2023/03/06 07:45:00;;;;;;;21.23;11.53;;;;;;;3.18;75.03;97763.84;5017033;28;20344;-54
2023/03/06 07:47:27;;;;;;;24.07;11.70;;;;;;;3.10;79.04;97762.72;5006830;28;20231;-55
2023/03/06 07:49:55;;;;;;;26.90;11.47;;;;;;;3.13;78.63;97766.78;5002566;28;20227;-52
2023/03/06 07:52:23;;;;;;;24.57;11.93;;;;;;;3.21;79.56;97768.75;5006144;28;20259;-55
2023/03/06 07:54:49;;;;;;;26.00;12.87;;;;;;;3.13;79.80;97763.41;5003110;28;20292;-52
2023/03/06 07:57:16;;;;;;;69.83;28.73;;;;;;;3.05;79.40;97764.84;5004960;28;20228;-56
2023/03/06 07:59:42;;;;;;;25.53;12.50;;;;;;;2.97;80.32;97763.81;5003152;28;20236;-53
2023/03/06 08:02:10;;;;;;;21.27;11.57;;;;;;;3.04;79.82;97775.28;5005997;28;20242;-54
2023/03/06 08:04:37;;;;;;;36.20;20.17;;;;;;;3.01;80.97;97765.22;5002113;28;20229;-52
2023/03/06 08:07:03;;;;;;;30.60;14.87;;;;;;;3.09;80.35;97775.72;5005077;28;20232;-54
2023/03/06 08:09:31;;;;;;;24.37;13.53;;;;;;;3.09;81.37;97779.13;5005941;28;20236;-54
2023/03/06 08:11:58;;;;;;;26.57;13.00;;;;;;;3.22;83.21;97773.78;5002070;28;20236;-52
2023/03/06 08:14:25;;;;;;;25.80;12.90;;;;;;;3.27;81.16;97773.41;5005468;28;20248;-53
2023/03/06 08:16:55;;;;;;;24.20;12.27;;;;;;;3.26;81.63;97776.91;5002868;28;20236;-53
2023/03/06 08:19:21;;;;;;;22.83;12.33;;;;;;;3.13;81.87;97774.53;5005152;28;20785;-52
2023/03/06 08:21:48;;;;;;;26.83;12.90;;;;;;;3.07;82.57;97778.44;5002619;28;20446;-51
2023/03/06 08:24:15;;;;;;;22.83;11.43;;;;;;;3.09;82.57;97784.28;5005333;28;20232;-53
2023/03/06 08:26:43;;;;;;;23.20;11.70;;;;;;;3.10;83.17;97778.19;5002932;28;20732;-53
2023/03/06 08:29:10;;;;;;;22.30;11.67;;;;;;;3.07;82.30;97775.03;5004933;28;20690;-55
2023/03/06 08:31:39;;;;;;;24.67;11.47;;;;;;;3.10;82.81;97773.03;5003370;28;20240;-54
2023/03/06 08:34:07;;;;;;;24.23;12.53;;;;;;;3.05;80.78;97776.91;5004674;28;20308;-53
2023/03/06 08:36:34;;;;;;;26.23;14.17;;;;;;;3.07;81.22;97778.44;5005429;28;20561;-53
2023/03/06 08:39:01;;;;;;;21.33;12.10;;;;;;;3.08;82.05;97780.06;5002891;28;20646;-52
2023/03/06 08:41:28;;;;;;;23.57;12.33;;;;;;;3.02;82.42;97780.56;5005370;28;20221;-53
2023/03/06 08:43:56;;;;;;;25.13;12.27;;;;;;;3.04;83.16;97783.00;5001971;28;20592;-55
2023/03/06 08:46:24;;;;;;;22.57;11.57;;;;;;;3.04;82.36;97777.84;5004094;28;20286;-53
2023/03/06 08:48:51;;;;;;;23.70;13.30;;;;;;;3.09;83.54;97780.88;5001284;28;20231;-53
2023/03/06 08:51:19;;;;;;;25.77;12.73;;;;;;;3.10;83.44;97778.19;5005442;28;20224;-52
2023/03/06 08:53:46;;;;;;;25.70;12.87;;;;;;;3.12;85.83;97785.00;5002243;28;20307;-53
2023/03/06 08:56:17;;;;;;;31.07;14.23;;;;;;;3.16;82.15;97786.38;5005113;28;20774;-56
2023/03/06 08:58:44;;;;;;;23.10;12.70;;;;;;;3.26;82.99;97784.66;5001313;28;20235;-53
2023/03/06 09:01:14;;;;;;;27.17;13.10;;;;;;;3.23;81.78;97782.31;5005100;28;20237;-55
2023/03/06 09:03:41;;;;;;;25.83;13.33;;;;;;;3.29;82.25;97784.41;5001844;28;20243;-52
2023/03/06 09:06:07;;;;;;;23.33;12.57;;;;;;;3.40;82.06;97788.72;5004885;28;20232;-55
2023/03/06 09:08:34;;;;;;;26.13;13.77;;;;;;;3.39;81.71;97787.88;5004950;28;20229;-55
2023/03/06 09:11:01;;;;;;;23.87;12.33;;;;;;;3.48;82.45;97795.81;5002031;28;20311;-53
2023/03/06 09:13:27;;;;;;;28.77;15.93;;;;;;;3.60;83.61;97796.56;5004857;28;20240;-54
2023/03/06 09:15:54;;;;;;;26.27;13.57;;;;;;;3.70;78.27;97802.59;5001856;28;20228;-54
2023/03/06 09:18:22;;;;;;;27.40;13.47;;;;;;;3.59;79.18;97802.69;5019958;28;20229;-54
2023/03/06 09:20:48;;;;;;;28.53;14.63;;;;;;;3.63;81.20;97804.06;5001915;28;20228;-55
2023/03/06 09:23:15;;;;;;;26.87;13.40;;;;;;;3.64;81.13;97800.53;5004864;28;20231;-53
2023/03/06 09:25:42;;;;;;;23.70;13.27;;;;;;;3.68;80.55;97801.91;5001658;28;20236;-55
2023/03/06 09:28:08;;;;;;;27.33;14.10;;;;;;;3.77;80.27;97800.31;5004559;28;20221;-53
2023/03/06 09:30:35;;;;;;;26.37;13.37;;;;;;;3.93;80.52;97803.25;5004888;28;20236;-54
2023/03/06 09:33:01;;;;;;;27.57;13.93;;;;;;;4.09;80.59;97807.13;5001794;28;20267;-51
2023/03/06 09:35:29;;;;;;;25.30;14.07;;;;;;;4.29;78.56;97802.84;5005091;28;20244;-52
2023/03/06 09:37:56;;;;;;;32.90;16.10;;;;;;;4.16;75.70;97800.50;5001851;28;20294;-55
2023/03/06 09:40:33;;;;;;;32.47;15.93;;;;;;;4.16;75.60;97799.66;5004889;28;20278;-54
2023/03/06 09:43:00;;;;;;;26.93;13.80;;;;;;;4.04;77.53;97799.75;5001271;28;20285;-52
2023/03/06 09:45:27;;;;;;;25.70;13.37;;;;;;;4.18;75.68;97801.19;5004851;28;20568;-55
2023/03/06 09:48:01;;;;;;;25.70;13.87;;;;;;;4.20;78.29;97799.28;5002209;28;20228;-56
2023/03/06 09:50:38;;;;;;;27.30;13.37;;;;;;;4.23;76.45;97803.38;5005074;28;20232;-52
2023/03/06 09:53:26;;;;;;;27.07;13.93;;;;;;;4.22;76.18;97804.31;5001618;28;20610;-52
2023/03/06 09:56:00;;;;;;;27.37;13.37;;;;;;;4.30;74.18;97796.72;5001840;28;20233;-55
2023/03/06 09:58:30;;;;;;;28.03;13.80;;;;;;;4.33;74.65;97800.81;5004676;28;20294;-53
2023/03/06 10:01:01;;;;;;;25.77;13.53;;;;;;;4.49;76.67;97798.53;5000197;28;20240;-57
2023/03/06 10:03:33;;;;;;;25.83;14.37;;;;;;;4.70;78.02;97800.22;4987855;28;20209;-57
2023/03/06 10:06:11;;;;;;;28.20;14.40;;;;;;;4.82;74.05;97804.31;4995339;28;20580;-52
2023/03/06 10:08:47;;;;;;;25.73;14.00;;;;;;;4.90;72.64;97808.81;4998352;28;20232;-52
2023/03/06 10:11:19;;;;;;;23.97;11.97;;;;;;;5.13;72.33;97803.38;5000649;28;20278;-57
2023/03/06 10:13:50;;;;;;;27.53;13.37;;;;;;;5.11;71.35;97805.28;4996840;28;20222;-54
2023/03/06 10:16:25;;;;;;;25.90;13.00;;;;;;;5.17;72.05;97804.72;4998544;28;20222;-54
2023/03/06 10:18:53;;;;;;;25.80;12.90;;;;;;;5.39;68.94;97808.78;4996866;28;20567;-55
2023/03/06 10:21:33;;;;;;;23.03;12.77;;;;;;;5.01;70.76;97807.88;4996875;28;20588;-54
2023/03/06 10:24:09;;;;;;;25.23;12.43;;;;;;;5.03;70.59;97808.56;4996746;28;20240;-57
2023/03/06 10:26:40;;;;;;;22.27;12.67;;;;;;;5.20;68.99;97809.63;5002024;28;20232;-55
2023/03/06 10:29:31;;;;;;;24.93;12.47;;;;;;;5.38;68.85;97807.16;5002799;28;20286;-55
2023/03/06 10:32:10;;;;;;;23.10;13.70;;;;;;;5.43;70.76;97810.16;5000532;28;20241;-56
2023/03/06 10:34:39;;;;;;;23.60;12.60;;;;;;;5.61;70.47;97806.84;5003413;28;20290;-53
2023/03/06 10:37:20;;;;;;;23.63;12.17;;;;;;;5.65;65.97;97797.84;5003105;28;20235;-55
2023/03/06 10:39:53;;;;;;;25.37;14.10;;;;;;;5.54;68.28;97805.78;5001903;28;20244;-53
2023/03/06 10:42:19;;;;;;;22.30;12.57;;;;;;;5.64;67.15;97801.41;5007121;28;20247;-57
2023/03/06 10:44:46;;;;;;;24.73;13.13;;;;;;;5.65;67.08;97800.44;5001739;28;20224;-57
2023/03/06 10:47:38;;;;;;;26.13;12.80;;;;;;;5.36;66.32;97798.72;5005606;28;20239;-57
2023/03/06 10:50:18;;;;;;;22.37;12.80;;;;;;;5.37;67.93;97794.38;4993872;28;20287;-57
2023/03/06 10:52:59;;;;;;;26.33;14.53;;;;;;;5.65;68.37;97791.88;5002260;28;20245;-57
2023/03/06 10:55:28;;;;;;;21.47;11.93;;;;;;;5.74;67.03;97788.44;5005273;28;20226;-58
2023/03/06 10:57:55;;;;;;;23.57;12.67;;;;;;;5.87;66.55;97783.75;5001619;28;20680;-54
2023/03/06 11:00:32;;;;;;;24.57;12.37;;;;;;;5.82;65.55;97788.56;5005472;28;20217;-55
2023/03/06 11:03:06;;;;;;;25.40;13.53;;;;;;;5.93;65.22;97781.56;5001737;28;20712;-55
2023/03/06 11:05:32;;;;;;;25.40;14.53;;;;;;;6.10;66.02;97788.59;5005555;28;20285;-57
2023/03/06 11:08:00;;;;;;;21.20;12.60;;;;;;;6.17;64.83;97796.63;4996972;28;20248;-55
2023/03/06 11:10:29;;;;;;;25.30;12.27;;;;;;;6.15;63.82;97796.78;5005273;28;20278;-56
2023/03/06 11:12:58;;;;;;;25.43;14.63;;;;;;;6.13;66.24;97795.28;5002448;28;22509;-54
2023/03/06 11:15:26;;;;;;;20.80;12.13;;;;;;;6.13;62.34;97798.69;5006722;28;20306;-54
2023/03/06 11:17:59;;;;;;;17.03;9.30;;;;;;;5.90;73.93;97787.84;5001473;28;20235;-52
2023/03/06 11:20:29;;;;;;;26.83;14.10;;;;;;;5.86;69.71;97795.06;5004237;28;20224;-53
2023/03/06 11:23:01;;;;;;;27.30;15.43;;;;;;;5.97;67.32;97786.31;5001110;28;20240;-52
2023/03/06 11:25:33;;;;;;;22.57;11.50;;;;;;;6.08;62.86;97787.13;5004760;28;20790;-55
2023/03/06 11:28:03;;;;;;;21.23;11.27;;;;;;;5.99;64.04;97784.41;5000583;28;20241;-56
2023/03/06 11:30:37;;;;;;;22.90;12.00;;;;;;;6.09;62.13;97781.78;5004226;28;20233;-56
2023/03/06 11:33:14;;;;;;;24.63;12.40;;;;;;;5.87;63.63;97781.16;5001910;28;20236;-56
2023/03/06 11:35:50;;;;;;;25.60;12.77;;;;;;;5.75;64.10;97780.53;5002178;28;20232;-56
2023/03/06 11:38:22;;;;;;;20.70;10.80;;;;;;;5.61;65.13;97781.81;5004292;28;20227;-53